Time;durP1;ratioP1;P1;durP2;ratioP2;P2;SDS_P1;SDS_P2;PMS_P1;PMS_P2;Temp;Humidity;BMP_temperature;BMP_pressure;BME280_temperature;BME280_humidity;BME280_pressure;Samples;Min_cycle;Max_cycle;Signal;HPM_P1;HPM_P2
2023/05/21 00:00:40;;;;;;;5.43;3.42;;;;;;;15.59;83.37;101878.75;5019295;28;20025;-87
2023/05/21 00:03:12;;;;;;;3.63;2.97;;;;;;;15.32;86.13;101877.25;5026062;28;20479;-87
2023/05/21 00:05:38;;;;;;;3.95;3.20;;;;;;;15.32;86.44;101858.31;5027334;28;20048;-87
2023/05/21 00:08:04;;;;;;;3.40;2.90;;;;;;;15.41;85.70;101860.81;5027200;28;20156;-87
2023/05/21 00:10:29;;;;;;;5.50;3.50;;;;;;;15.24;87.96;101865.09;5026501;28;20017;-87
2023/05/21 00:12:54;;;;;;;3.60;3.08;;;;;;;15.28;88.03;101851.03;5008466;28;20091;-87
2023/05/21 00:15:20;;;;;;;5.47;3.72;;;;;;;15.29;87.59;101852.66;5011767;28;20041;-87
2023/05/21 00:17:45;;;;;;;4.32;3.85;;;;;;;15.25;87.07;101852.63;5021243;28;20021;-87
2023/05/21 00:20:11;;;;;;;5.53;3.50;;;;;;;15.24;87.78;101846.16;5006310;28;20524;-87
2023/05/21 00:22:37;;;;;;;4.25;3.55;;;;;;;15.40;85.94;101853.56;5017189;28;20115;-86
2023/05/21 00:25:03;;;;;;;7.85;3.85;;;;;;;15.38;85.71;101841.88;5003939;28;20064;-86
2023/05/21 00:27:28;;;;;;;7.70;3.15;;;;;;;15.42;86.21;101849.16;5020763;28;20025;-87
2023/05/21 00:29:53;;;;;;;4.45;3.53;;;;;;;15.53;85.34;101835.16;5025971;28;20108;-87
2023/05/21 00:32:19;;;;;;;4.10;3.40;;;;;;;15.23;89.37;101838.91;5022916;28;20100;-87
2023/05/21 00:34:44;;;;;;;3.42;3.13;;;;;;;15.34;87.94;101829.72;5002034;28;20033;-87
2023/05/21 00:37:09;;;;;;;4.95;3.22;;;;;;;15.46;86.07;101826.63;5012546;28;20333;-87
2023/05/21 00:39:35;;;;;;;5.63;3.50;;;;;;;15.17;87.85;101820.69;5019469;28;20533;-87
2023/05/21 00:42:02;;;;;;;5.28;3.58;;;;;;;15.28;87.77;101828.47;4996829;28;20128;-87
2023/05/21 00:44:32;;;;;;;3.55;3.22;;;;;;;15.51;85.19;101829.09;5019056;28;20086;-87
2023/05/21 00:47:01;;;;;;;5.40;3.55;;;;;;;15.21;88.22;101835.66;5024835;28;20021;-87
2023/05/21 00:49:27;;;;;;;3.90;3.40;;;;;;;15.47;86.43;101833.09;5019407;28;20119;-87
2023/05/21 00:51:53;;;;;;;5.43;3.42;;;;;;;15.50;86.72;101830.31;5019309;28;20116;-87
2023/05/21 00:54:19;;;;;;;6.53;4.32;;;;;;;15.35;88.79;101815.25;5016004;28;20037;-87
2023/05/21 00:56:46;;;;;;;4.72;3.58;;;;;;;15.53;85.38;101817.41;5018032;28;20032;-87
2023/05/21 00:59:12;;;;;;;4.43;2.80;;;;;;;15.56;84.09;101811.81;5013133;28;20025;-87
2023/05/21 01:01:37;;;;;;;5.72;3.13;;;;;;;15.45;85.83;101814.53;5005914;28;20549;-87
2023/05/21 01:04:03;;;;;;;4.85;3.53;;;;;;;15.03;91.14;101812.06;5020025;28;20109;-87
2023/05/21 01:06:33;;;;;;;6.53;4.05;;;;;;;14.97;92.05;101820.09;5025722;28;20525;-87
2023/05/21 01:09:01;;;;;;;3.88;3.17;;;;;;;15.15;89.96;101817.44;5009007;28;20376;-87
2023/05/21 01:11:47;;;;;;;3.60;3.28;;;;;;;15.23;89.17;101821.16;5019264;28;20037;-87
2023/05/21 01:14:15;;;;;;;3.28;2.88;;;;;;;15.21;89.99;101817.91;5019413;28;20049;-87
2023/05/21 01:16:42;;;;;;;5.95;3.72;;;;;;;15.33;89.25;101820.47;5018932;28;20046;-87
2023/05/21 01:19:12;;;;;;;4.00;3.30;;;;;;;15.18;89.48;101822.34;5011896;28;20033;-87
2023/05/21 01:21:44;;;;;;;5.10;3.78;;;;;;;15.06;91.59;101816.97;4996726;28;20430;-87
2023/05/21 01:24:10;;;;;;;4.10;3.70;;;;;;;15.17;88.50;101817.06;5014669;28;20032;-87
2023/05/21 01:26:37;;;;;;;6.43;4.07;;;;;;;15.08;92.12;101814.56;5018950;28;20037;-87
2023/05/21 01:29:11;;;;;;;4.10;3.50;;;;;;;15.15;91.20;101814.63;5004881;28;20044;-87
2023/05/21 01:31:55;;;;;;;5.13;2.92;;;;;;;15.00;93.19;101812.88;5016508;28;20018;-87
2023/05/21 01:34:25;;;;;;;3.97;3.15;;;;;;;15.12;90.35;101797.69;5020151;28;20471;-87
2023/05/21 01:37:11;;;;;;;6.40;3.33;;;;;;;15.29;88.95;101801.91;5004320;28;20502;-87
2023/05/21 01:39:42;;;;;;;5.60;2.90;;;;;;;15.41;88.37;101798.75;5020382;28;20467;-87
2023/05/21 01:42:09;;;;;;;3.20;2.83;;;;;;;15.43;87.17;101802.84;5005196;28;20029;-87
2023/05/21 01:44:35;;;;;;;5.43;3.55;;;;;;;15.16;89.30;101802.16;5004353;28;20037;-87
2023/05/21 01:47:03;;;;;;;4.43;3.63;;;;;;;15.17;91.18;101802.97;4995050;28;20128;-86
2023/05/21 01:49:29;;;;;;;5.45;3.80;;;;;;;15.12;90.66;101798.50;5021924;28;20379;-87
2023/05/21 01:51:55;;;;;;;3.83;3.20;;;;;;;15.16;89.57;101799.34;4999654;28;20584;-87
2023/05/21 01:54:20;;;;;;;4.60;3.60;;;;;;;14.93;93.68;101791.03;5023109;28;20040;-86
2023/05/21 01:56:46;;;;;;;3.63;3.20;;;;;;;15.00;90.77;101784.66;4998404;28;20045;-87
2023/05/21 01:59:12;;;;;;;5.78;3.33;;;;;;;15.25;89.72;101791.38;5025010;28;20037;-87
2023/05/21 02:01:37;;;;;;;4.38;3.63;;;;;;;15.02;92.30;101787.91;5012909;28;20372;-87
2023/05/21 02:04:03;;;;;;;5.25;3.95;;;;;;;15.06;92.36;101788.75;5016097;28;20037;-86
2023/05/21 02:06:28;;;;;;;5.00;3.28;;;;;;;14.95;91.90;101785.03;5001856;28;20087;-87
2023/05/21 02:08:54;;;;;;;4.05;3.35;;;;;;;15.13;90.72;101782.38;5004084;28;20440;-87
2023/05/21 02:11:20;;;;;;;7.22;3.42;;;;;;;15.02;91.50;101782.28;5020466;28;20463;-86
2023/05/21 02:13:45;;;;;;;4.10;3.65;;;;;;;14.71;96.04;101778.69;5019670;28;20042;-87
2023/05/21 02:16:13;;;;;;;4.00;3.30;;;;;;;14.82;93.67;101774.03;5005614;28;20474;-87
2023/05/21 02:18:43;;;;;;;3.90;3.47;;;;;;;14.60;97.34;101784.22;5019347;28;20018;-87
2023/05/21 02:21:12;;;;;;;4.20;3.60;;;;;;;14.73;95.75;101776.31;5022612;28;20376;-87
2023/05/21 02:23:37;;;;;;;5.13;3.63;;;;;;;14.89;93.12;101778.13;5004189;28;20508;-87
2023/05/21 02:26:03;;;;;;;6.38;4.00;;;;;;;14.71;96.06;101778.69;5021736;28;20029;-87
2023/05/21 02:28:28;;;;;;;5.85;4.05;;;;;;;14.88;93.87;101787.75;5013020;28;20038;-87
2023/05/21 02:30:55;;;;;;;4.78;3.60;;;;;;;14.90;93.04;101786.16;5026030;28;20026;-87
2023/05/21 02:33:20;;;;;;;6.47;3.83;;;;;;;14.80;94.26;101778.44;5024292;28;20112;-87
2023/05/21 02:35:46;;;;;;;5.93;4.15;;;;;;;14.60;98.28;101783.41;5027535;28;20116;-87
2023/05/21 02:38:12;;;;;;;4.75;3.65;;;;;;;14.79;96.34;101780.41;5004364;28;20029;-86
2023/05/21 02:40:38;;;;;;;4.93;3.13;;;;;;;14.80;93.55;101781.25;4994184;28;20030;-86
2023/05/21 02:43:03;;;;;;;5.53;4.10;;;;;;;14.79;95.29;101774.78;5021185;28;20566;-87
2023/05/21 02:45:29;;;;;;;4.80;3.58;;;;;;;14.87;94.52;101784.13;5001578;28;20312;-87
2023/05/21 02:47:54;;;;;;;3.88;3.45;;;;;;;14.82;94.46;101782.47;5019983;28;20013;-87
2023/05/21 02:50:21;;;;;;;5.35;3.30;;;;;;;14.81;94.87;101775.19;5020673;28;20033;-86
2023/05/21 02:52:48;;;;;;;4.70;4.03;;;;;;;14.89;95.98;101776.09;5015175;28;20107;-87
2023/05/21 02:55:13;;;;;;;5.30;4.30;;;;;;;14.95;95.17;101771.75;5017422;28;20041;-86
2023/05/21 02:57:39;;;;;;;7.28;3.78;;;;;;;14.94;93.07;101769.28;5022933;28;20022;-87
2023/05/21 03:00:05;;;;;;;6.45;4.28;;;;;;;14.74;95.98;101769.50;5003207;28;20022;-87
2023/05/21 03:02:31;;;;;;;5.93;4.78;;;;;;;14.63;98.77;101771.34;5028998;28;20037;-87
2023/05/21 03:04:56;;;;;;;4.43;3.55;;;;;;;14.77;96.31;101771.53;5024974;28;20038;-87
2023/05/21 03:07:23;;;;;;;5.90;4.57;;;;;;;14.63;97.91;101769.38;5028026;28;20030;-87
2023/05/21 03:09:48;;;;;;;4.55;3.63;;;;;;;14.86;92.72;101767.59;5005190;28;20037;-87
2023/05/21 03:12:13;;;;;;;4.38;3.85;;;;;;;14.90;94.74;101776.91;5022718;28;20348;-87
2023/05/21 03:14:41;;;;;;;4.10;3.55;;;;;;;14.80;94.44;101772.78;5019041;28;20097;-87
2023/05/21 03:17:06;;;;;;;5.05;4.03;;;;;;;14.82;96.72;101774.03;5017950;28;20109;-86
2023/05/21 03:19:35;;;;;;;5.63;3.78;;;;;;;14.82;96.04;101778.81;5020299;28;20197;-87
2023/05/21 03:22:04;;;;;;;6.95;4.18;;;;;;;14.91;94.43;101764.44;5019353;28;20029;-87
2023/05/21 03:24:30;;;;;;;7.35;4.75;;;;;;;14.63;99.88;101765.72;5025671;28;20465;-87
2023/05/21 03:26:56;;;;;;;4.97;4.20;;;;;;;14.78;96.72;101773.16;5017896;28;20033;-87
2023/05/21 03:29:21;;;;;;;6.32;4.97;;;;;;;14.86;96.01;101771.22;5016737;28;20436;-87
2023/05/21 03:31:47;;;;;;;5.78;4.20;;;;;;;14.87;92.87;101757.97;5023435;28;20033;-87
2023/05/21 03:34:12;;;;;;;5.80;4.28;;;;;;;14.73;96.41;101765.03;5008039;28;20017;-87
2023/05/21 03:36:38;;;;;;;10.05;5.88;;;;;;;14.45;100.00;101776.75;5006716;28;20024;-87
2023/05/21 03:39:03;;;;;;;7.97;5.20;;;;;;;14.15;100.00;101768.31;5024010;28;20033;-87
2023/05/21 03:41:28;;;;;;;7.47;4.70;;;;;;;14.23;100.00;101764.41;5034461;28;20413;-86
2023/05/21 03:43:54;;;;;;;8.23;4.45;;;;;;;14.31;100.00;101768.91;5016701;28;20053;-87
2023/05/21 03:46:20;;;;;;;9.00;4.60;;;;;;;14.43;100.00;101763.03;5020150;28;20022;-87
2023/05/21 03:48:45;;;;;;;7.05;5.32;;;;;;;14.21;100.00;101763.97;5027167;28;20022;-87
2023/05/21 03:51:12;;;;;;;9.52;5.22;;;;;;;14.38;100.00;101754.16;5017962;28;20392;-86
2023/05/21 03:53:37;;;;;;;6.85;4.63;;;;;;;14.43;98.54;101750.97;5020889;28;20870;-86
2023/05/21 03:56:02;;;;;;;7.53;4.55;;;;;;;14.42;100.00;101761.44;5001230;28;20044;-86
2023/05/21 03:58:29;;;;;;;8.25;5.28;;;;;;;14.29;100.00;101757.22;5013332;28;20026;-87
2023/05/21 04:00:55;;;;;;;6.10;4.60;;;;;;;14.52;97.55;101748.66;5021607;28;20022;-87
2023/05/21 04:03:20;;;;;;;8.75;4.57;;;;;;;14.63;99.18;101757.28;5019179;28;20091;-87
2023/05/21 04:05:45;;;;;;;7.55;4.95;;;;;;;14.41;100.00;101764.63;5011681;28;20502;-87
2023/05/21 04:08:11;;;;;;;9.00;4.35;;;;;;;14.41;100.00;101771.06;5018028;28;20029;-87
2023/05/21 04:10:36;;;;;;;6.45;4.20;;;;;;;14.34;100.00;101771.00;5011848;28;20480;-86
2023/05/21 04:13:01;;;;;;;10.55;5.05;;;;;;;14.42;100.00;101767.06;5016413;28;20054;-86
2023/05/21 04:15:27;;;;;;;7.97;4.97;;;;;;;14.35;98.95;101769.78;5003687;28;20044;-87
2023/05/21 04:17:53;;;;;;;9.25;4.20;;;;;;;14.35;100.00;101772.59;4998823;28;20029;-87
2023/05/21 04:20:19;;;;;;;7.45;4.97;;;;;;;14.31;100.00;101777.38;5005103;28;20028;-87
2023/05/21 04:22:44;;;;;;;8.23;4.70;;;;;;;14.43;99.87;101767.88;5003336;28;20026;-86
2023/05/21 04:25:09;;;;;;;7.10;4.43;;;;;;;14.52;98.75;101767.56;5007942;28;20072;-87
2023/05/21 04:27:35;;;;;;;7.55;3.85;;;;;;;14.44;100.00;101767.50;5024111;28;20025;-87
2023/05/21 04:30:03;;;;;;;8.38;4.72;;;;;;;14.52;99.98;101776.84;5019226;28;20381;-87
2023/05/21 04:32:29;;;;;;;7.80;5.03;;;;;;;14.20;100.00;101776.41;5025821;28;20021;-87
2023/05/21 04:34:55;;;;;;;10.25;5.03;;;;;;;14.35;100.00;101768.97;5023498;28;20021;-86
2023/05/21 04:37:23;;;;;;;8.82;4.68;;;;;;;14.40;100.00;101772.28;5025967;28;20035;-88
2023/05/21 04:39:49;;;;;;;7.15;4.93;;;;;;;14.29;100.00;101774.13;5022528;28;20037;-88
2023/05/21 04:42:14;;;;;;;9.52;5.45;;;;;;;14.41;100.00;101773.09;5020506;28;20098;-88
2023/05/21 04:44:40;;;;;;;9.40;6.13;;;;;;;14.43;100.00;101777.13;5020793;28;20053;-87
2023/05/21 04:47:06;;;;;;;8.30;5.15;;;;;;;14.31;100.00;101768.91;5021246;28;20029;-88
2023/05/21 04:49:33;;;;;;;8.82;5.35;;;;;;;14.30;100.00;101781.38;5021253;28;20108;-87
2023/05/21 04:51:59;;;;;;;6.68;4.80;;;;;;;14.33;100.00;101766.53;5024590;28;20055;-87
2023/05/21 04:54:25;;;;;;;10.05;5.13;;;;;;;14.56;97.90;101760.00;5024904;28;20037;-87
2023/05/21 04:56:50;;;;;;;9.02;5.28;;;;;;;14.19;100.00;101757.91;5026819;28;20366;-87
2023/05/21 04:59:16;;;;;;;9.95;5.88;;;;;;;14.38;100.00;101769.03;5019983;28;20081;-88
2023/05/21 05:01:42;;;;;;;11.32;6.40;;;;;;;14.37;100.00;101758.13;5005816;28;20472;-87
2023/05/21 05:04:08;;;;;;;7.68;5.60;;;;;;;14.48;100.00;101770.34;5026521;28;20030;-87
2023/05/21 05:06:33;;;;;;;10.40;5.68;;;;;;;14.15;100.00;101771.94;5030104;28;20040;-88
2023/05/21 05:08:59;;;;;;;9.98;6.22;;;;;;;14.16;100.00;101765.09;5025452;28;20103;-88
2023/05/21 05:11:25;;;;;;;9.07;5.60;;;;;;;14.25;100.00;101767.63;5017975;28;20037;-87
2023/05/21 05:13:51;;;;;;;9.18;5.88;;;;;;;14.42;100.00;101777.53;5017493;28;20095;-87
2023/05/21 05:16:17;;;;;;;8.05;5.72;;;;;;;14.40;100.00;101769.47;5016141;28;20033;-87
2023/05/21 05:18:42;;;;;;;9.60;5.55;;;;;;;14.38;100.00;101774.66;5023183;28;20025;-87
2023/05/21 05:21:07;;;;;;;10.07;5.65;;;;;;;14.31;100.00;101773.75;5024378;28;20116;-87
2023/05/21 05:23:33;;;;;;;8.30;5.93;;;;;;;14.47;100.00;101779.19;5023681;28;20037;-87
2023/05/21 05:25:58;;;;;;;10.18;5.32;;;;;;;14.50;100.00;101775.59;5005837;28;20029;-88
2023/05/21 05:28:23;;;;;;;11.68;6.07;;;;;;;14.58;100.00;101782.97;5023198;28;20025;-87
2023/05/21 05:30:49;;;;;;;8.45;5.90;;;;;;;14.49;100.00;101779.63;5025116;28;20060;-87
2023/05/21 05:33:14;;;;;;;7.80;4.90;;;;;;;14.50;100.00;101779.22;5024484;28;20394;-87
2023/05/21 05:35:39;;;;;;;8.73;5.53;;;;;;;14.33;100.00;101769.34;5017273;28;20075;-86
2023/05/21 05:38:07;;;;;;;7.82;5.10;;;;;;;14.48;100.00;101775.16;5006292;28;20037;-87
2023/05/21 05:40:33;;;;;;;10.25;5.25;;;;;;;14.56;100.00;101776.91;5024691;28;20018;-86
2023/05/21 05:42:58;;;;;;;9.40;5.00;;;;;;;14.41;100.00;101776.69;5021148;28;20063;-86
2023/05/21 05:45:25;;;;;;;10.05;5.55;;;;;;;14.40;100.00;101768.66;5008881;28;20033;-86
2023/05/21 05:47:51;;;;;;;12.55;5.35;;;;;;;14.42;100.00;101769.09;5010898;28;20839;-87
2023/05/21 05:50:16;;;;;;;8.73;5.45;;;;;;;14.35;100.00;101774.59;4993322;28;20037;-87
2023/05/21 05:52:41;;;;;;;8.23;4.32;;;;;;;14.53;100.00;101770.03;5014520;28;20144;-86
2023/05/21 05:55:07;;;;;;;9.98;5.95;;;;;;;14.38;100.00;101763.41;5009791;28;20032;-87
2023/05/21 05:57:33;;;;;;;7.20;4.70;;;;;;;14.48;100.00;101769.53;5003496;28;20017;-86
2023/05/21 05:59:58;;;;;;;7.63;4.95;;;;;;;14.64;100.00;101773.00;5010599;28;20030;-87
2023/05/21 06:02:23;;;;;;;10.48;5.10;;;;;;;14.67;100.00;101757.31;5019706;28;20033;-87
2023/05/21 06:04:49;;;;;;;6.57;4.97;;;;;;;14.65;100.00;101768.97;5011128;28;20040;-87
2023/05/21 06:07:14;;;;;;;8.65;5.10;;;;;;;14.59;100.00;101765.69;5026248;28;20444;-87
2023/05/21 06:09:40;;;;;;;9.18;4.72;;;;;;;14.59;100.00;101770.53;5010803;28;20025;-87
2023/05/21 06:12:06;;;;;;;10.77;5.80;;;;;;;14.71;99.94;101761.00;5009295;28;20116;-87
2023/05/21 06:14:31;;;;;;;9.20;5.30;;;;;;;14.87;99.09;101761.59;5028997;28;20392;-87
2023/05/21 06:16:56;;;;;;;14.70;6.20;;;;;;;14.71;100.00;101750.53;5019108;28;20060;-87
2023/05/21 06:19:22;;;;;;;8.18;4.93;;;;;;;14.81;100.00;101760.31;5010488;28;20039;-87
2023/05/21 06:21:47;;;;;;;9.27;5.32;;;;;;;14.70;100.00;101768.63;5011428;28;20030;-87
2023/05/21 06:24:13;;;;;;;8.50;5.10;;;;;;;14.87;100.00;101763.59;5030517;28;20028;-87
2023/05/21 06:26:38;;;;;;;6.18;4.20;;;;;;;14.90;100.00;101762.81;5009179;28;20188;-87
2023/05/21 06:29:03;;;;;;;8.38;5.95;;;;;;;14.79;99.72;101760.69;5029821;28;20112;-87
2023/05/21 06:31:31;;;;;;;7.93;5.38;;;;;;;14.76;100.00;101763.47;5031005;28;20171;-87
2023/05/21 06:33:58;;;;;;;6.53;5.15;;;;;;;14.86;100.00;101759.16;5024004;28;20562;-86
2023/05/21 06:36:28;;;;;;;10.82;5.07;;;;;;;14.98;100.00;101753.22;5020860;28;20022;-87
2023/05/21 06:38:56;;;;;;;14.50;5.72;;;;;;;15.02;99.92;101759.72;5026189;28;20468;-86
2023/05/21 06:41:22;;;;;;;9.55;4.72;;;;;;;14.95;100.00;101759.66;5029190;28;20541;-87
2023/05/21 06:43:47;;;;;;;12.82;5.40;;;;;;;14.89;100.00;101758.38;5027086;28;20025;-87
2023/05/21 06:46:13;;;;;;;9.77;4.78;;;;;;;15.10;98.97;101750.13;5027131;28;20056;-87
2023/05/21 06:48:39;;;;;;;14.43;5.90;;;;;;;15.17;100.00;101752.22;5022011;28;20026;-87
2023/05/21 06:51:04;;;;;;;8.05;5.05;;;;;;;15.08;100.00;101741.25;5024621;28;20040;-86
2023/05/21 06:53:29;;;;;;;7.93;5.78;;;;;;;15.12;100.00;101746.94;5006637;28;20026;-87
2023/05/21 06:55:55;;;;;;;9.05;5.22;;;;;;;15.12;100.00;101752.56;5022835;28;20060;-87
2023/05/21 06:58:21;;;;;;;9.80;4.65;;;;;;;15.23;99.32;101748.63;5006076;28;20038;-87
2023/05/21 07:00:49;;;;;;;13.80;5.47;;;;;;;15.34;98.77;101747.94;5022060;28;20419;-86
2023/05/21 07:03:15;;;;;;;8.95;5.65;;;;;;;15.37;100.00;101738.69;5024269;28;20034;-87
2023/05/21 07:05:41;;;;;;;14.82;5.45;;;;;;;15.43;96.82;101734.28;5027473;28;20040;-87
2023/05/21 07:08:11;;;;;;;9.48;5.50;;;;;;;15.33;100.00;101730.22;5022732;28;20030;-87
2023/05/21 07:10:37;;;;;;;7.45;5.15;;;;;;;15.63;100.00;101734.88;5012772;28;20120;-86
2023/05/21 07:13:02;;;;;;;9.65;4.97;;;;;;;15.52;99.40;101737.59;5006698;28;20601;-87
2023/05/21 07:15:27;;;;;;;10.35;5.90;;;;;;;15.63;96.68;101720.75;5007675;28;20037;-87
2023/05/21 07:17:53;;;;;;;8.45;4.50;;;;;;;15.69;97.63;101726.84;5020742;28;20022;-86
2023/05/21 07:20:18;;;;;;;7.97;4.93;;;;;;;15.70;98.47;101736.91;5011150;28;20030;-87
2023/05/21 07:22:43;;;;;;;13.75;5.05;;;;;;;15.78;96.07;101738.63;5028458;28;20083;-86
2023/05/21 07:25:09;;;;;;;9.90;5.38;;;;;;;15.72;97.38;101728.91;5014409;28;20037;-86
2023/05/21 07:27:34;;;;;;;7.95;4.70;;;;;;;15.85;95.82;101733.00;5015780;28;20021;-87
2023/05/21 07:30:00;;;;;;;10.60;6.13;;;;;;;15.92;98.77;101733.06;5017709;28;20049;-87
2023/05/21 07:32:27;;;;;;;7.53;5.20;;;;;;;15.99;96.77;101737.94;5015671;28;20017;-87
2023/05/21 07:34:53;;;;;;;9.07;5.05;;;;;;;15.95;94.20;101749.22;5017285;28;20041;-88
2023/05/21 07:37:19;;;;;;;9.65;5.10;;;;;;;15.97;96.25;101740.34;5022385;28;20534;-87
2023/05/21 07:39:44;;;;;;;5.82;4.40;;;;;;;15.99;96.45;101740.78;5019716;28;20626;-87
2023/05/21 07:42:10;;;;;;;7.47;4.93;;;;;;;15.98;93.54;101731.50;5013020;28;20055;-87
2023/05/21 07:44:35;;;;;;;11.35;4.85;;;;;;;16.16;96.51;101747.72;4998938;28;20045;-87
2023/05/21 07:47:00;;;;;;;9.48;5.93;;;;;;;16.15;95.33;101746.09;5015890;28;20037;-87
2023/05/21 07:49:26;;;;;;;10.57;5.47;;;;;;;16.04;95.89;101740.38;5015874;28;20492;-88
2023/05/21 07:51:51;;;;;;;10.23;5.32;;;;;;;16.10;95.30;101744.47;5003487;28;20026;-87
2023/05/21 07:54:17;;;;;;;10.65;5.63;;;;;;;16.15;96.54;101731.97;5025047;28;20025;-87
2023/05/21 07:56:42;;;;;;;6.65;5.07;;;;;;;16.31;96.55;101740.94;5019619;28;20386;-87
2023/05/21 07:59:07;;;;;;;7.97;5.47;;;;;;;16.33;94.54;101740.53;5018144;28;20025;-87
2023/05/21 08:01:33;;;;;;;7.72;4.78;;;;;;;16.42;93.75;101727.69;5029733;28;20026;-87
2023/05/21 08:04:04;;;;;;;10.23;5.68;;;;;;;16.45;94.54;101731.72;5030273;28;20112;-87
2023/05/21 08:06:30;;;;;;;8.23;4.78;;;;;;;16.57;95.20;101722.06;5029726;28;20056;-87
2023/05/21 08:08:56;;;;;;;6.25;5.03;;;;;;;16.56;93.06;101712.78;5024472;28;20775;-88
2023/05/21 08:11:22;;;;;;;9.60;5.53;;;;;;;16.57;93.29;101717.22;5027768;28;20391;-88
2023/05/21 08:13:47;;;;;;;9.13;5.22;;;;;;;16.53;91.66;101707.09;5007871;28;20058;-87
2023/05/21 08:16:12;;;;;;;6.78;4.60;;;;;;;16.71;92.70;101713.63;5006360;28;20033;-87
2023/05/21 08:18:38;;;;;;;9.23;5.18;;;;;;;16.84;93.35;101714.06;5008526;28;20444;-87
2023/05/21 08:21:03;;;;;;;7.00;5.13;;;;;;;16.74;94.51;101712.00;5006959;28;20030;-87
2023/05/21 08:23:29;;;;;;;10.50;5.50;;;;;;;16.73;92.69;101714.03;5006270;28;20025;-87
2023/05/21 08:25:54;;;;;;;7.68;5.57;;;;;;;16.77;93.79;101720.50;5023544;28;20064;-87
2023/05/21 08:28:21;;;;;;;7.45;5.05;;;;;;;16.87;94.62;101718.94;5007957;28;20022;-87
2023/05/21 08:30:46;;;;;;;9.73;5.53;;;;;;;16.89;91.58;101715.69;5007447;28;20034;-87
2023/05/21 08:33:12;;;;;;;8.60;5.78;;;;;;;16.94;92.74;101718.94;5009681;28;20075;-87
2023/05/21 08:35:38;;;;;;;9.00;4.88;;;;;;;16.96;91.74;101707.25;5009650;28;20026;-87
2023/05/21 08:38:03;;;;;;;8.82;5.10;;;;;;;16.97;92.03;101708.84;5005213;28;20129;-87
2023/05/21 08:40:29;;;;;;;12.88;5.18;;;;;;;16.98;91.86;101714.09;5010178;28;20061;-87
2023/05/21 08:42:55;;;;;;;9.57;5.95;;;;;;;16.89;91.75;101721.34;5002646;28;20048;-87
2023/05/21 08:45:21;;;;;;;8.23;5.45;;;;;;;17.03;90.86;101721.38;5002362;28;20121;-87
2023/05/21 08:47:54;;;;;;;11.43;5.32;;;;;;;17.04;91.95;101714.53;5009267;28;20109;-87
2023/05/21 08:50:25;;;;;;;7.70;5.20;;;;;;;17.13;90.57;101723.41;5023863;28;20030;-87
2023/05/21 08:52:50;;;;;;;7.10;4.60;;;;;;;17.15;89.97;101720.19;5008249;28;20052;-87
2023/05/21 08:55:16;;;;;;;8.02;5.05;;;;;;;17.22;90.35;101728.66;4999027;28;20476;-87
2023/05/21 08:57:43;;;;;;;6.50;4.95;;;;;;;17.26;89.17;101729.47;5003151;28;20115;-87
2023/05/21 09:00:10;;;;;;;6.75;5.30;;;;;;;17.36;89.07;101727.88;5004585;28;20030;-88
2023/05/21 09:02:39;;;;;;;7.75;5.00;;;;;;;17.39;88.47;101735.53;5006299;28;20105;-88
2023/05/21 09:05:05;;;;;;;7.63;5.72;;;;;;;17.40;89.07;101732.31;5006882;28;20053;-88
2023/05/21 09:07:36;;;;;;;8.10;4.72;;;;;;;17.56;88.73;101731.09;5007142;28;20029;-88
2023/05/21 09:10:07;;;;;;;7.93;4.72;;;;;;;17.54;89.71;101728.69;5019012;28;20443;-88
2023/05/21 09:12:33;;;;;;;7.43;5.20;;;;;;;17.83;89.84;101734.31;4998433;28;20060;-87
2023/05/21 09:15:00;;;;;;;9.35;5.32;;;;;;;17.71;88.25;101727.03;5026985;28;20037;-88
2023/05/21 09:17:25;;;;;;;11.73;4.78;;;;;;;17.65;88.11;101729.47;5024620;28;20075;-88
2023/05/21 09:20:13;;;;;;;7.95;5.18;;;;;;;17.68;87.43;101727.84;5023944;28;20034;-87
2023/05/21 09:22:49;;;;;;;6.72;5.03;;;;;;;17.75;86.63;101721.34;5020737;28;20029;-88
2023/05/21 09:25:20;;;;;;;6.57;5.15;;;;;;;17.83;86.10;101723.00;5006342;28;20453;-88
2023/05/21 09:27:46;;;;;;;7.07;4.53;;;;;;;17.95;86.40;101719.72;5017071;28;20541;-88
2023/05/21 09:30:14;;;;;;;7.72;5.20;;;;;;;17.91;86.13;101718.94;4998351;28;20066;-87
2023/05/21 09:32:40;;;;;;;8.50;5.30;;;;;;;17.85;87.05;101718.53;5011468;28;20022;-87
2023/05/21 09:35:08;;;;;;;9.00;5.68;;;;;;;18.01;88.16;101717.28;4997799;28;20025;-87
2023/05/21 09:37:42;;;;;;;8.15;5.15;;;;;;;17.81;87.01;101719.72;5027903;28;20480;-87
2023/05/21 09:40:21;;;;;;;7.72;5.60;;;;;;;17.78;87.04;101717.72;5027888;28;20548;-87
2023/05/21 09:42:51;;;;;;;6.38;4.57;;;;;;;17.99;86.68;101714.88;5023331;28;20057;-87
2023/05/21 09:45:21;;;;;;;7.63;4.90;;;;;;;18.11;85.70;101709.97;5026520;28;20033;-87
2023/05/21 09:47:48;;;;;;;5.90;5.10;;;;;;;18.10;86.74;101702.69;5028890;28;20034;-88
2023/05/21 09:50:26;;;;;;;6.40;5.43;;;;;;;18.22;86.32;101713.59;5026855;28;20049;-88
2023/05/21 09:52:54;;;;;;;7.28;5.15;;;;;;;18.30;85.19;101706.66;5011397;28;20033;-88
2023/05/21 09:55:23;;;;;;;6.43;4.50;;;;;;;18.45;85.29;101708.22;5026487;28;20021;-88
2023/05/21 09:57:50;;;;;;;9.48;5.72;;;;;;;18.80;83.62;101700.72;5022486;28;20424;-87
2023/05/21 10:00:29;;;;;;;7.70;5.43;;;;;;;18.67;84.93;101702.41;5022780;28;20033;-88
2023/05/21 10:02:56;;;;;;;7.93;5.30;;;;;;;19.01;84.19;101702.63;5006791;28;20071;-88
2023/05/21 10:05:26;;;;;;;9.88;6.18;;;;;;;18.72;85.30;101704.84;5010346;28;20033;-88
2023/05/21 10:07:56;;;;;;;13.40;6.13;;;;;;;18.92;84.42;101698.66;5008588;28;20557;-87
2023/05/21 10:10:22;;;;;;;8.45;5.70;;;;;;;18.72;83.82;101693.50;5009614;28;20056;-87
2023/05/21 10:12:53;;;;;;;8.77;5.93;;;;;;;18.85;83.69;101696.69;5025824;28;20021;-87
2023/05/21 10:15:23;;;;;;;8.05;5.70;;;;;;;18.72;83.77;101687.81;5022085;28;20033;-87
2023/05/21 10:17:49;;;;;;;8.00;6.03;;;;;;;18.81;83.73;101691.00;5026852;28;20031;-88
2023/05/21 10:20:16;;;;;;;8.63;5.82;;;;;;;18.94;82.56;101687.69;5019191;28;20030;-87
2023/05/21 10:22:43;;;;;;;9.43;5.82;;;;;;;19.20;81.92;101677.75;5005989;28;20467;-87
2023/05/21 10:25:09;;;;;;;6.80;5.50;;;;;;;18.91;82.49;101682.84;5020437;28;20555;-87
2023/05/21 10:27:36;;;;;;;8.00;5.32;;;;;;;19.06;83.63;101673.00;5027885;28;20025;-87
2023/05/21 10:30:04;;;;;;;9.15;6.55;;;;;;;19.09;81.90;101666.50;5026006;28;20037;-87
2023/05/21 10:32:30;;;;;;;8.82;5.68;;;;;;;19.46;81.92;101679.16;5026946;28;20494;-87
2023/05/21 10:34:56;;;;;;;9.27;5.90;;;;;;;19.54;79.67;101669.31;5027366;28;20059;-87
2023/05/21 10:37:23;;;;;;;8.80;6.03;;;;;;;19.62;79.29;101664.38;5020739;28;20025;-88
2023/05/21 10:39:52;;;;;;;7.03;6.03;;;;;;;19.76;79.00;101663.47;5026285;28;20041;-87
2023/05/21 10:42:23;;;;;;;8.80;5.93;;;;;;;20.21;78.68;101657.63;5025333;28;20033;-88
2023/05/21 10:44:58;;;;;;;7.82;5.57;;;;;;;20.35;78.72;101659.47;5007262;28;20558;-88
2023/05/21 10:47:47;;;;;;;11.68;6.07;;;;;;;19.99;78.93;101660.75;5022964;28;20534;-87
2023/05/21 10:50:34;;;;;;;9.10;6.88;;;;;;;20.17;78.47;101654.03;5020231;28;20029;-87
2023/05/21 10:53:18;;;;;;;11.65;7.00;;;;;;;20.33;77.95;101650.56;5028092;28;20064;-87
2023/05/21 10:55:57;;;;;;;11.80;7.38;;;;;;;20.49;77.14;101659.25;5014066;28;20037;-87
2023/05/21 10:58:22;;;;;;;12.00;7.68;;;;;;;20.39;77.02;101658.19;5022189;28;20021;-87
2023/05/21 11:00:48;;;;;;;10.82;8.35;;;;;;;20.69;75.49;101656.56;5027895;28;20052;-87
2023/05/21 11:03:15;;;;;;;13.82;7.82;;;;;;;20.66;77.25;101655.41;5013603;28;20028;-88
2023/05/21 11:05:51;;;;;;;15.23;7.97;;;;;;;21.44;74.72;101657.38;5012792;28;20029;-88
2023/05/21 11:08:22;;;;;;;14.60;8.55;;;;;;;20.91;74.58;101651.34;5023749;28;20022;-87
2023/05/21 11:10:56;;;;;;;11.75;8.27;;;;;;;20.92;74.56;101648.06;5030062;28;20466;-87
2023/05/21 11:13:22;;;;;;;15.15;9.73;;;;;;;20.60;75.67;101637.19;5009947;28;20118;-87
2023/05/21 11:15:57;;;;;;;10.95;8.25;;;;;;;21.12;75.99;101633.09;5011055;28;20018;-87
2023/05/21 11:18:34;;;;;;;13.98;8.88;;;;;;;21.32;72.80;101645.34;5009313;28;20388;-87
2023/05/21 11:21:10;;;;;;;14.30;8.75;;;;;;;21.31;74.03;101620.97;5026370;28;20414;-87